Time;durP1;ratioP1;P1;durP2;ratioP2;P2;SDS_P1;SDS_P2;PMS_P1;PMS_P2;Temp;Humidity;BMP_temperature;BMP_pressure;BME280_temperature;BME280_humidity;BME280_pressure;Samples;Min_cycle;Max_cycle;Signal;HPM_P1;HPM_P2
2022/09/26 00:00:34;;;;;;;4.97;3.60;;;11.20;99.90;;;;;;5065054;28;20042;-80
2022/09/26 00:03:00;;;;;;;6.45;3.58;;;11.20;99.90;;;;;;5082761;28;20148;-84
2022/09/26 00:05:26;;;;;;;8.40;4.20;;;11.20;99.90;;;;;;5064753;28;20147;-80
2022/09/26 00:07:51;;;;;;;8.60;4.20;;;11.20;99.90;;;;;;5084693;28;20048;-80
2022/09/26 00:10:17;;;;;;;7.10;4.38;;;11.20;99.90;;;;;;5064951;28;20580;-80
2022/09/26 00:12:44;;;;;;;7.18;4.20;;;11.20;99.90;;;;;;5083521;28;20041;-80
2022/09/26 00:15:10;;;;;;;9.32;4.40;;;11.20;99.90;;;;;;5084673;28;20504;-80
2022/09/26 00:17:36;;;;;;;5.57;4.05;;;11.20;99.90;;;;;;5065142;28;20056;-80
2022/09/26 00:20:03;;;;;;;6.85;3.38;;;11.20;99.90;;;;;;5061295;28;20084;-80
2022/09/26 00:22:28;;;;;;;5.63;3.60;;;11.20;99.90;;;;;;5066151;28;20064;-79
2022/09/26 00:24:54;;;;;;;7.60;3.70;;;11.20;99.90;;;;;;5084665;28;20045;-80
2022/09/26 00:27:21;;;;;;;6.20;3.72;;;11.10;99.90;;;;;;5066941;28;20104;-80
2022/09/26 00:29:46;;;;;;;5.53;3.80;;;11.10;99.90;;;;;;5068244;28;20114;-80
2022/09/26 00:32:12;;;;;;;6.15;3.70;;;11.10;99.90;;;;;;5081307;28;20638;-80
2022/09/26 00:34:38;;;;;;;4.60;3.42;;;11.20;99.90;;;;;;5045349;28;20123;-80
2022/09/26 00:37:03;;;;;;;4.43;3.30;;;11.20;99.90;;;;;;5087343;28;20051;-79
2022/09/26 00:39:29;;;;;;;8.23;3.75;;;11.20;99.90;;;;;;5087076;28;20037;-80
2022/09/26 00:41:55;;;;;;;4.85;2.90;;;11.20;99.90;;;;;;5087229;28;20041;-80
2022/09/26 00:44:38;;;;;;;6.82;3.33;;;11.20;99.90;;;;;;5066002;28;20192;-80
2022/09/26 00:47:11;;;;;;;9.95;3.17;;;11.20;99.90;;;;;;5062735;28;20045;-80
2022/09/26 00:49:40;;;;;;;6.30;3.20;;;11.20;99.90;;;;;;5066224;28;20048;-79
2022/09/26 00:52:15;;;;;;;5.28;3.25;;;11.20;99.90;;;;;;5083541;28;20052;-79
2022/09/26 00:54:44;;;;;;;6.45;3.17;;;11.20;99.90;;;;;;5087906;28;20040;-80
2022/09/26 00:57:16;;;;;;;8.55;3.30;;;11.30;99.90;;;;;;5069849;28;20048;-80
2022/09/26 00:59:47;;;;;;;6.03;3.10;;;11.30;99.90;;;;;;5085559;28;20088;-80
2022/09/26 01:02:14;;;;;;;7.13;3.08;;;11.30;99.90;;;;;;5066942;28;20049;-80
2022/09/26 01:04:41;;;;;;;7.85;3.33;;;11.30;99.90;;;;;;5065798;28;20040;-80
2022/09/26 01:07:10;;;;;;;4.30;2.40;;;11.20;99.90;;;;;;5083881;28;20149;-80
2022/09/26 01:09:38;;;;;;;5.95;2.92;;;11.30;99.90;;;;;;5084960;28;20054;-79
2022/09/26 01:12:05;;;;;;;4.97;2.97;;;11.30;99.90;;;;;;5085380;28;20048;-80
2022/09/26 01:14:32;;;;;;;5.78;2.45;;;11.30;99.90;;;;;;5100169;28;20494;-80
2022/09/26 01:16:59;;;;;;;6.93;2.88;;;11.20;99.90;;;;;;5088923;28;20068;-79
2022/09/26 01:19:48;;;;;;;6.13;2.70;;;11.30;99.90;;;;;;5089305;28;20052;-80
2022/09/26 01:22:51;;;;;;;5.50;2.67;;;11.30;99.90;;;;;;5039519;28;20082;-80
2022/09/26 01:25:48;;;;;;;5.57;2.40;;;11.20;99.90;;;;;;5087274;28;20170;-80
2022/09/26 01:28:37;;;;;;;7.05;2.30;;;11.20;99.90;;;;;;5105893;28;20692;-80
2022/09/26 01:31:10;;;;;;;9.40;2.80;;;11.20;99.90;;;;;;5106922;28;20036;-80
2022/09/26 01:33:40;;;;;;;11.65;3.33;;;11.10;99.90;;;;;;5104592;28;20040;-79
2022/09/26 01:36:37;;;;;;;;;;;11.20;99.90;;;;;;5098061;28;20071;-80
2022/09/26 01:39:25;;;;;;;5.93;2.65;;;11.10;99.90;;;;;;5079354;28;19966;-81
2022/09/26 01:42:13;;;;;;;5.63;2.42;;;11.30;99.90;;;;;;5106361;28;20047;-80
2022/09/26 01:44:50;;;;;;;6.18;2.85;;;11.20;99.90;;;;;;5106960;28;20050;-80
2022/09/26 01:47:27;;;;;;;7.05;3.15;;;11.30;99.90;;;;;;5107915;28;20050;-79
2022/09/26 01:50:18;;;;;;;11.38;3.45;;;11.30;99.90;;;;;;5106148;28;20044;-80
2022/09/26 01:53:07;;;;;;;4.80;2.72;;;11.20;99.90;;;;;;5087805;28;20059;-80
2022/09/26 01:55:52;;;;;;;9.57;3.25;;;11.20;99.90;;;;;;5106748;28;20043;-80
2022/09/26 01:58:44;;;;;;;9.48;3.67;;;11.30;99.90;;;;;;5087741;28;20087;-80
2022/09/26 02:01:13;;;;;;;5.88;2.58;;;11.20;99.90;;;;;;5105169;28;20036;-80
2022/09/26 02:03:50;;;;;;;8.32;3.13;;;11.20;99.90;;;;;;5085831;28;20194;-80
2022/09/26 02:06:24;;;;;;;5.68;2.85;;;11.20;99.90;;;;;;5087069;28;20044;-80
2022/09/26 02:08:57;;;;;;;7.65;3.30;;;11.20;99.90;;;;;;5094344;28;20064;-80
2022/09/26 02:11:24;;;;;;;7.70;3.25;;;11.30;99.90;;;;;;5068211;28;20048;-79
2022/09/26 02:14:29;;;;;;;8.02;3.72;;;11.30;99.90;;;;;;5084565;28;20131;-80
2022/09/26 02:17:01;;;;;;;6.68;3.28;;;11.30;99.90;;;;;;5083036;28;20076;-80
2022/09/26 02:19:33;;;;;;;5.68;3.50;;;11.30;99.90;;;;;;5080840;28;20109;-80
2022/09/26 02:22:00;;;;;;;8.82;3.80;;;11.30;99.90;;;;;;5046802;28;20064;-80
2022/09/26 02:24:27;;;;;;;7.47;3.45;;;11.30;99.90;;;;;;5067277;28;20044;-80
2022/09/26 02:26:53;;;;;;;5.53;3.17;;;11.30;99.90;;;;;;5067306;28;20040;-80
2022/09/26 02:29:20;;;;;;;7.97;3.25;;;11.30;99.90;;;;;;5068457;28;20083;-80
2022/09/26 02:32:11;;;;;;;8.65;3.55;;;11.30;99.90;;;;;;5082920;28;20128;-80
2022/09/26 02:34:39;;;;;;;6.15;3.53;;;11.30;99.90;;;;;;5064789;28;20053;-80
2022/09/26 02:37:05;;;;;;;7.80;3.30;;;11.40;99.90;;;;;;5065144;28;20059;-80
2022/09/26 02:39:32;;;;;;;9.38;4.38;;;11.40;99.90;;;;;;5066769;28;20045;-80
2022/09/26 02:42:20;;;;;;;4.00;3.03;;;11.40;99.90;;;;;;5066537;28;20048;-80
2022/09/26 02:44:58;;;;;;;7.00;3.50;;;11.30;99.90;;;;;;5066152;28;20052;-80
2022/09/26 02:47:42;;;;;;;7.88;3.15;;;11.40;99.90;;;;;;5066934;28;20066;-80
2022/09/26 02:50:24;;;;;;;4.55;3.53;;;11.40;99.90;;;;;;5065066;28;20039;-80
2022/09/26 02:53:23;;;;;;;10.30;3.97;;;11.40;99.90;;;;;;5082603;28;20044;-79
2022/09/26 02:56:02;;;;;;;8.02;3.88;;;11.40;99.90;;;;;;5063983;28;20401;-79
2022/09/26 02:58:49;;;;;;;7.43;3.95;;;11.40;99.90;;;;;;5065230;28;20047;-79
2022/09/26 03:01:23;;;;;;;7.32;4.10;;;11.40;99.90;;;;;;5080882;28;20049;-80
2022/09/26 03:04:04;;;;;;;7.13;4.32;;;11.40;99.90;;;;;;5064009;28;20049;-79
2022/09/26 03:06:36;;;;;;;5.93;3.97;;;11.40;99.90;;;;;;5067103;28;20119;-79
2022/09/26 03:09:03;;;;;;;9.82;4.40;;;11.30;99.90;;;;;;5078739;28;20063;-80
2022/09/26 03:11:30;;;;;;;8.32;4.85;;;11.30;99.90;;;;;;5103709;28;20095;-80
2022/09/26 03:13:57;;;;;;;6.03;4.18;;;11.30;99.90;;;;;;5105006;28;20044;-80
2022/09/26 03:16:26;;;;;;;10.52;4.88;;;11.40;99.90;;;;;;5103351;28;20534;-81
2022/09/26 03:19:04;;;;;;;10.30;4.50;;;11.30;99.90;;;;;;5085110;28;20044;-80
2022/09/26 03:21:31;;;;;;;6.68;4.30;;;11.30;99.90;;;;;;5084803;28;20044;-80
2022/09/26 03:23:57;;;;;;;7.70;4.63;;;11.30;99.90;;;;;;5086784;28;20086;-80
2022/09/26 03:26:26;;;;;;;10.30;5.03;;;11.30;99.90;;;;;;5104400;28;20036;-81
2022/09/26 03:28:55;;;;;;;7.80;4.80;;;11.30;99.90;;;;;;5104625;28;20040;-80
2022/09/26 03:31:21;;;;;;;5.85;4.60;;;11.20;99.90;;;;;;5085636;28;20044;-80
2022/09/26 03:33:47;;;;;;;9.05;4.70;;;11.30;99.90;;;;;;5105270;28;20042;-79
2022/09/26 03:36:13;;;;;;;8.02;5.45;;;11.30;99.90;;;;;;5085476;28;20044;-80
2022/09/26 03:38:39;;;;;;;7.57;5.53;;;11.20;99.90;;;;;;5102111;28;20131;-79
2022/09/26 03:41:06;;;;;;;8.07;5.18;;;11.30;99.90;;;;;;5104345;28;20064;-80
2022/09/26 03:43:31;;;;;;;8.32;5.85;;;11.20;99.90;;;;;;5087027;28;20052;-80
2022/09/26 03:46:05;;;;;;;10.73;5.95;;;11.20;99.90;;;;;;5083909;28;20066;-80
2022/09/26 03:48:31;;;;;;;9.13;6.07;;;11.20;99.90;;;;;;5104333;28;20127;-80
2022/09/26 03:51:12;;;;;;;10.07;6.00;;;11.20;99.90;;;;;;5085814;28;20051;-80
2022/09/26 03:53:41;;;;;;;8.23;6.00;;;11.20;99.90;;;;;;5086123;28;20063;-79
2022/09/26 03:56:18;;;;;;;8.73;6.07;;;11.20;99.90;;;;;;5104603;28;20032;-80
2022/09/26 03:58:45;;;;;;;11.95;6.03;;;11.10;99.90;;;;;;5086589;28;20072;-79
2022/09/26 04:01:15;;;;;;;13.05;6.00;;;11.20;99.90;;;;;;5104398;28;20044;-80
2022/09/26 04:03:42;;;;;;;10.73;5.97;;;11.10;99.90;;;;;;5102987;28;20100;-79
2022/09/26 04:06:09;;;;;;;9.00;6.40;;;11.10;99.90;;;;;;5090114;28;20177;-80
2022/09/26 04:08:40;;;;;;;8.25;6.18;;;11.20;99.90;;;;;;5090345;28;20179;-79
2022/09/26 04:11:09;;;;;;;10.15;6.97;;;11.10;99.90;;;;;;5090400;28;20052;-80
2022/09/26 04:13:35;;;;;;;12.75;7.28;;;11.20;99.90;;;;;;5089424;28;20058;-79
2022/09/26 04:16:04;;;;;;;10.63;6.95;;;11.10;99.90;;;;;;5088279;28;20090;-80
2022/09/26 04:18:30;;;;;;;11.25;6.65;;;11.20;99.90;;;;;;5090401;28;20048;-80
2022/09/26 04:20:57;;;;;;;11.05;7.57;;;11.10;99.90;;;;;;5089970;28;20040;-80
2022/09/26 04:23:25;;;;;;;12.15;7.85;;;11.20;99.90;;;;;;5107892;28;20093;-79
2022/09/26 04:25:51;;;;;;;11.82;7.90;;;11.10;99.90;;;;;;5089742;28;20043;-79
2022/09/26 04:28:17;;;;;;;11.98;7.93;;;11.00;99.90;;;;;;5089586;28;20048;-80
2022/09/26 04:30:42;;;;;;;11.80;7.90;;;11.10;99.90;;;;;;5088600;28;20103;-81
2022/09/26 04:33:08;;;;;;;14.20;7.30;;;11.10;99.90;;;;;;5088200;28;20036;-78
2022/09/26 04:35:34;;;;;;;11.75;7.53;;;11.10;99.90;;;;;;5087959;28;20102;-79
2022/09/26 04:37:59;;;;;;;12.43;8.15;;;11.10;99.90;;;;;;5032382;28;20052;-78
2022/09/26 04:40:25;;;;;;;10.27;7.43;;;11.00;99.90;;;;;;5086439;28;20044;-78
2022/09/26 04:42:51;;;;;;;16.33;8.85;;;11.10;99.90;;;;;;5105598;28;20044;-79
2022/09/26 04:45:17;;;;;;;17.77;8.48;;;11.00;99.90;;;;;;5105502;28;20036;-77
2022/09/26 04:47:43;;;;;;;11.77;9.15;;;11.00;99.90;;;;;;5106981;28;20039;-79
2022/09/26 04:50:09;;;;;;;14.25;8.25;;;11.00;99.90;;;;;;5105192;28;20112;-77
2022/09/26 04:52:34;;;;;;;14.05;8.73;;;11.10;99.90;;;;;;5103531;28;20389;-77
2022/09/26 04:55:00;;;;;;;13.40;8.75;;;11.10;99.90;;;;;;5099754;28;20043;-78
2022/09/26 04:57:26;;;;;;;14.10;8.82;;;11.00;99.90;;;;;;5076311;28;20131;-79
2022/09/26 04:59:52;;;;;;;15.45;8.93;;;11.00;99.90;;;;;;5081027;28;20055;-78
2022/09/26 05:02:19;;;;;;;11.77;9.88;;;11.00;99.90;;;;;;5085367;28;20052;-77
2022/09/26 05:04:47;;;;;;;12.52;8.80;;;11.00;99.90;;;;;;5104188;28;20044;-76
2022/09/26 05:07:15;;;;;;;12.95;9.30;;;11.00;99.90;;;;;;5084547;28;20056;-78
2022/09/26 05:09:41;;;;;;;16.50;9.48;;;11.00;99.90;;;;;;5086125;28;20056;-78
2022/09/26 05:12:07;;;;;;;12.30;9.43;;;11.10;99.90;;;;;;5088324;28;20044;-79
2022/09/26 05:14:34;;;;;;;14.30;9.82;;;11.00;99.90;;;;;;5103114;28;20531;-79
2022/09/26 05:17:01;;;;;;;18.95;10.73;;;11.10;99.90;;;;;;5103195;28;20051;-79
2022/09/26 05:19:27;;;;;;;11.68;9.43;;;11.00;99.90;;;;;;5101631;28;20404;-77
2022/09/26 05:21:52;;;;;;;13.18;9.23;;;11.10;99.90;;;;;;5087209;28;20067;-79
2022/09/26 05:27:06;;;;;;;17.42;10.38;;;11.10;99.90;;;;;;5103275;28;20086;-79
2022/09/26 05:29:31;;;;;;;15.05;10.43;;;11.10;99.90;;;;;;5107143;28;20096;-78
2022/09/26 05:31:58;;;;;;;18.02;12.05;;;11.10;99.90;;;;;;5085449;28;20079;-78
2022/09/26 05:34:24;;;;;;;14.70;10.40;;;11.00;99.90;;;;;;5102429;28;20040;-78
2022/09/26 05:36:51;;;;;;;14.25;9.90;;;11.00;99.90;;;;;;5103467;28;20048;-79
2022/09/26 05:42:04;;;;;;;16.08;10.82;;;11.00;99.90;;;;;;5085790;28;20055;-79
2022/09/26 05:44:30;;;;;;;13.68;9.82;;;11.10;99.90;;;;;;5102876;28;20040;-79
2022/09/26 05:46:56;;;;;;;13.30;10.10;;;11.10;99.90;;;;;;5102853;28;20047;-79
2022/09/26 05:49:22;;;;;;;13.80;10.10;;;11.00;99.90;;;;;;5085075;28;20059;-79
2022/09/26 05:51:48;;;;;;;14.45;10.27;;;11.00;99.90;;;;;;5105881;28;20043;-79
2022/09/26 05:54:14;;;;;;;17.17;10.23;;;11.10;99.90;;;;;;5088837;28;20040;-77
2022/09/26 05:56:40;;;;;;;12.65;9.52;;;11.00;99.90;;;;;;5107827;28;20107;-79
2022/09/26 05:59:05;;;;;;;12.00;9.30;;;11.00;99.90;;;;;;5048915;28;20047;-80
2022/09/26 06:01:32;;;;;;;15.15;10.93;;;11.00;99.90;;;;;;5057475;28;20578;-79
2022/09/26 06:03:58;;;;;;;12.73;9.82;;;11.00;99.90;;;;;;5070769;28;20048;-81
2022/09/26 06:06:24;;;;;;;13.13;9.27;;;11.00;99.90;;;;;;5068809;28;20079;-79
2022/09/26 06:08:50;;;;;;;15.57;9.43;;;11.00;99.90;;;;;;5071531;28;20079;-79
2022/09/26 06:11:21;;;;;;;11.45;8.52;;;11.10;99.90;;;;;;5081258;28;20044;-79
2022/09/26 06:13:48;;;;;;;11.60;9.05;;;11.10;99.90;;;;;;5062410;28;20062;-79
2022/09/26 06:16:17;;;;;;;13.23;8.98;;;11.00;99.90;;;;;;5045757;28;20158;-79
2022/09/26 06:18:43;;;;;;;15.15;8.85;;;11.00;99.90;;;;;;5055467;28;20056;-79
2022/09/26 06:21:11;;;;;;;12.70;8.88;;;11.00;99.90;;;;;;5083320;28;20036;-79
2022/09/26 06:23:37;;;;;;;11.75;8.32;;;11.00;99.90;;;;;;5050986;28;20067;-79
2022/09/26 06:26:07;;;;;;;11.13;8.15;;;11.00;99.90;;;;;;5067709;28;20646;-78
2022/09/26 06:28:34;;;;;;;14.27;8.60;;;11.00;99.90;;;;;;5068918;28;20311;-79
2022/09/26 06:31:06;;;;;;;20.38;7.75;;;11.00;99.90;;;;;;5080722;28;20052;-79
2022/09/26 06:33:32;;;;;;;13.90;8.45;;;11.00;99.90;;;;;;5068975;28;20059;-80
2022/09/26 06:36:00;;;;;;;12.30;8.10;;;11.00;99.90;;;;;;5078974;28;20275;-79
2022/09/26 06:38:26;;;;;;;8.80;7.40;;;11.00;99.90;;;;;;5067006;28;20040;-80
2022/09/26 06:40:52;;;;;;;11.48;7.50;;;11.00;99.90;;;;;;5080679;28;20065;-80
2022/09/26 06:43:18;;;;;;;10.93;7.25;;;11.00;99.90;;;;;;5059584;28;20074;-79
2022/09/26 06:45:44;;;;;;;10.60;7.10;;;11.00;99.90;;;;;;5082732;28;20044;-80
2022/09/26 06:48:10;;;;;;;9.98;7.03;;;11.10;99.90;;;;;;5058733;28;20044;-79
2022/09/26 06:50:36;;;;;;;11.48;6.90;;;11.10;99.90;;;;;;5082002;28;20735;-79
2022/09/26 06:53:03;;;;;;;9.73;6.63;;;11.00;99.90;;;;;;5079966;28;20504;-79
2022/09/26 06:55:29;;;;;;;9.38;6.30;;;11.10;99.90;;;;;;5070722;28;20071;-79
2022/09/26 06:57:54;;;;;;;8.00;6.53;;;11.00;99.90;;;;;;5075655;28;20097;-79
2022/09/26 07:00:20;;;;;;;12.95;6.78;;;11.00;99.90;;;;;;5069357;28;20052;-79
2022/09/26 07:02:53;;;;;;;8.90;6.82;;;11.00;99.90;;;;;;5079478;28;20493;-80
2022/09/26 07:05:20;;;;;;;7.50;5.68;;;11.00;99.90;;;;;;5073519;28;20043;-79
2022/09/26 07:07:47;;;;;;;9.55;5.63;;;11.10;99.90;;;;;;5080704;28;20048;-71
2022/09/26 07:10:14;;;;;;;10.02;6.00;;;11.10;99.90;;;;;;5068993;28;20321;-71
2022/09/26 07:12:42;;;;;;;9.88;5.95;;;11.10;99.90;;;;;;5077964;28;20040;-71
2022/09/26 07:15:11;;;;;;;7.72;5.47;;;11.00;99.90;;;;;;5068979;28;20044;-71
2022/09/26 07:17:37;;;;;;;7.32;5.30;;;11.10;99.90;;;;;;5095641;28;20513;-71
2022/09/26 07:20:03;;;;;;;8.07;4.95;;;11.10;99.90;;;;;;5069155;28;20459;-72
2022/09/26 07:22:29;;;;;;;7.65;5.18;;;11.00;99.90;;;;;;5078490;28;20044;-71
2022/09/26 07:24:54;;;;;;;9.63;5.88;;;11.00;99.90;;;;;;5050957;28;20059;-71
2022/09/26 07:27:20;;;;;;;7.65;5.20;;;11.00;99.90;;;;;;5070001;28;20072;-72
2022/09/26 07:29:46;;;;;;;7.43;4.30;;;11.00;99.90;;;;;;5087381;28;20046;-71
2022/09/26 07:32:12;;;;;;;10.32;5.32;;;11.00;99.90;;;;;;5081201;28;20044;-72
2022/09/26 07:34:39;;;;;;;8.07;4.93;;;11.00;99.90;;;;;;5071085;28;20071;-72
2022/09/26 07:37:06;;;;;;;8.18;4.50;;;11.00;99.90;;;;;;5055726;28;20044;-72
2022/09/26 07:39:32;;;;;;;6.25;4.55;;;11.00;99.90;;;;;;5069269;28;20078;-72
2022/09/26 07:42:02;;;;;;;7.25;5.03;;;10.90;99.90;;;;;;5079418;28;20078;-71
2022/09/26 07:44:28;;;;;;;6.43;4.50;;;10.90;99.90;;;;;;5074136;28;20398;-71
2022/09/26 07:52:22;;;;;;;8.52;5.28;;;11.00;99.90;;;;;;5061147;28;20125;-71
2022/09/26 07:54:48;;;;;;;7.88;4.93;;;11.00;99.90;;;;;;5037282;28;20144;-71
2022/09/26 07:57:14;;;;;;;6.07;4.38;;;11.00;99.90;;;;;;5078030;28;20047;-72
2022/09/26 07:59:40;;;;;;;6.90;4.75;;;10.90;99.90;;;;;;5059032;28;20273;-71
2022/09/26 08:02:17;;;;;;;6.55;4.78;;;11.00;99.90;;;;;;5056861;28;20191;-72
2022/09/26 08:04:43;;;;;;;6.30;4.45;;;11.10;99.90;;;;;;5044855;28;20048;-72
2022/09/26 08:07:11;;;;;;;7.88;4.82;;;11.10;99.90;;;;;;5071814;28;20044;-73
2022/09/26 08:09:36;;;;;;;9.23;5.00;;;11.00;99.90;;;;;;5069860;28;20047;-71
2022/09/26 08:12:02;;;;;;;9.02;4.88;;;11.10;99.90;;;;;;5078840;28;20526;-72
2022/09/26 08:14:28;;;;;;;8.85;5.00;;;11.20;99.90;;;;;;5068004;28;20040;-72
2022/09/26 08:16:54;;;;;;;8.00;4.85;;;11.20;99.90;;;;;;5078629;28;20113;-72
2022/09/26 08:19:21;;;;;;;7.22;4.32;;;11.20;99.90;;;;;;5079963;28;20134;-72
2022/09/26 08:21:48;;;;;;;8.80;4.88;;;11.20;99.90;;;;;;5078848;28;20048;-72
2022/09/26 08:24:13;;;;;;;6.72;4.97;;;11.20;99.90;;;;;;5069183;28;20059;-72
2022/09/26 08:26:39;;;;;;;7.45;4.68;;;11.20;99.90;;;;;;5061535;28;20039;-72
2022/09/26 08:29:11;;;;;;;8.00;4.90;;;11.20;99.90;;;;;;5068817;28;20052;-72
2022/09/26 08:31:39;;;;;;;12.35;5.28;;;11.30;99.90;;;;;;5072784;28;20052;-72
2022/09/26 08:34:06;;;;;;;7.10;5.10;;;11.30;99.90;;;;;;5064206;28;20123;-72
2022/09/26 08:36:32;;;;;;;7.70;5.13;;;11.30;99.90;;;;;;5078510;28;20047;-72
2022/09/26 08:38:58;;;;;;;8.00;5.15;;;11.40;99.90;;;;;;5065661;28;20091;-72
2022/09/26 08:41:31;;;;;;;8.30;4.93;;;11.40;99.90;;;;;;5064238;28;20729;-72
2022/09/26 08:44:02;;;;;;;7.20;5.40;;;11.40;99.90;;;;;;5056165;28;20056;-72
2022/09/26 08:47:16;;;;;;;7.45;4.75;;;11.40;99.90;;;;;;5078526;28;20090;-72
2022/09/26 08:49:56;;;;;;;6.90;5.15;;;11.40;99.90;;;;;;5067453;28;20044;-71
2022/09/26 08:52:31;;;;;;;8.48;5.55;;;11.40;99.90;;;;;;5079164;28;20051;-71
2022/09/26 08:55:00;;;;;;;6.43;4.32;;;11.40;99.90;;;;;;5072336;28;20052;-71
2022/09/26 08:57:41;;;;;;;8.90;4.70;;;11.40;99.90;;;;;;5080427;28;20055;-72
2022/09/26 09:00:17;;;;;;;5.88;4.40;;;11.50;99.90;;;;;;5063260;28;20131;-72
2022/09/26 09:03:22;;;;;;;6.93;4.20;;;11.50;99.90;;;;;;5065000;28;20045;-72
2022/09/26 09:05:53;;;;;;;9.88;4.90;;;11.50;99.90;;;;;;5055267;28;20113;-72
2022/09/26 09:08:23;;;;;;;10.60;4.68;;;11.50;99.90;;;;;;5075450;28;20119;-72
2022/09/26 09:11:10;;;;;;;6.10;4.20;;;11.50;99.90;;;;;;5019669;28;20084;-72
2022/09/26 09:14:19;;;;;;;6.20;4.38;;;11.60;99.90;;;;;;5068370;28;20044;-72
2022/09/26 09:17:12;;;;;;;10.70;4.45;;;11.60;99.90;;;;;;5044715;28;20142;-72
2022/09/26 09:19:57;;;;;;;10.02;5.45;;;11.70;99.90;;;;;;5063804;28;20567;-72
2022/09/26 09:22:46;;;;;;;8.98;4.32;;;11.70;99.90;;;;;;5058490;28;20551;-72
2022/09/26 09:25:19;;;;;;;8.70;4.83;;;11.80;99.90;;;;;;5034545;28;20102;-72
2022/09/26 09:28:03;;;;;;;7.80;4.55;;;11.80;99.90;;;;;;5060779;28;20456;-72
2022/09/26 09:30:38;;;;;;;8.23;4.20;;;11.80;99.90;;;;;;5050786;28;20072;-72
2022/09/26 09:33:16;;;;;;;8.90;4.47;;;11.90;99.90;;;;;;5060805;28;20040;-72
2022/09/26 09:35:49;;;;;;;9.77;4.78;;;12.00;99.90;;;;;;5051135;28;20058;-72
2022/09/26 09:38:22;;;;;;;10.50;4.68;;;12.00;99.90;;;;;;5060088;28;20060;-70
2022/09/26 09:41:13;;;;;;;8.55;4.45;;;12.00;99.90;;;;;;5050378;28;20053;-71
2022/09/26 09:43:59;;;;;;;7.20;4.15;;;12.10;99.90;;;;;;5005030;28;20085;-72
2022/09/26 09:46:36;;;;;;;6.80;4.43;;;12.10;99.90;;;;;;5004766;28;20052;-71
2022/09/26 09:49:08;;;;;;;8.38;4.22;;;12.00;99.90;;;;;;4989624;28;20193;-71
2022/09/26 09:51:33;;;;;;;10.15;4.50;;;12.00;99.90;;;;;;4999959;28;20054;-71
2022/09/26 09:54:05;;;;;;;7.65;4.38;;;12.10;99.90;;;;;;4991162;28;20073;-73
2022/09/26 09:57:12;;;;;;;12.05;4.32;;;12.10;99.90;;;;;;4994342;28;20061;-72
2022/09/26 09:59:41;;;;;;;8.80;4.43;;;12.10;99.90;;;;;;4998919;28;20051;-72
2022/09/26 10:02:27;;;;;;;6.35;4.43;;;12.10;99.90;;;;;;5002450;28;20117;-72
2022/09/26 10:05:15;;;;;;;9.35;4.60;;;12.10;99.90;;;;;;5006299;28;20049;-72
2022/09/26 10:07:41;;;;;;;8.25;5.43;;;12.00;99.90;;;;;;5016101;28;20116;-72
2022/09/26 10:10:18;;;;;;;9.85;4.40;;;12.00;99.90;;;;;;5003859;28;20110;-72
2022/09/26 10:12:45;;;;;;;9.55;5.15;;;12.10;99.90;;;;;;5019708;28;20060;-72
2022/09/26 10:15:20;;;;;;;12.05;5.63;;;12.10;99.90;;;;;;5029344;28;20040;-73
2022/09/26 10:18:05;;;;;;;12.00;5.15;;;12.00;99.90;;;;;;5039716;28;20086;-72
2022/09/26 10:20:36;;;;;;;9.38;5.25;;;12.10;99.90;;;;;;5077148;27;20051;-72
2022/09/26 10:23:11;;;;;;;8.88;5.03;;;12.00;99.90;;;;;;5096265;28;20055;-72
2022/09/26 10:25:37;;;;;;;9.00;5.53;;;12.10;99.90;;;;;;5070988;28;20048;-72
2022/09/26 10:28:04;;;;;;;9.18;5.30;;;12.00;99.90;;;;;;5064929;28;20047;-72
2022/09/26 10:30:45;;;;;;;7.28;5.20;;;12.00;99.90;;;;;;5069993;28;20102;-72
2022/09/26 10:33:24;;;;;;;11.18;5.40;;;12.00;99.90;;;;;;5060223;28;20044;-72
2022/09/26 10:35:51;;;;;;;9.30;5.10;;;12.10;99.90;;;;;;5067620;28;20048;-73
2022/09/26 10:38:18;;;;;;;9.75;5.40;;;12.10;99.90;;;;;;5082891;28;20378;-73
2022/09/26 10:40:54;;;;;;;7.95;4.97;;;12.10;99.90;;;;;;5074418;28;20048;-72
2022/09/26 10:43:33;;;;;;;9.23;4.70;;;12.20;99.90;;;;;;5065919;28;20052;-72
2022/09/26 10:46:05;;;;;;;8.60;4.80;;;12.20;99.90;;;;;;5085946;28;20063;-72
2022/09/26 10:48:52;;;;;;;8.25;5.53;;;12.20;99.90;;;;;;5079342;28;20044;-72
2022/09/26 10:51:34;;;;;;;9.57;5.60;;;12.20;99.90;;;;;;5069633;28;20068;-72
2022/09/26 10:54:21;;;;;;;8.90;5.80;;;12.20;99.90;;;;;;5080554;28;20167;-71
2022/09/26 10:56:56;;;;;;;7.53;4.47;;;12.20;99.90;;;;;;5049530;28;20048;-71
2022/09/26 10:59:30;;;;;;;8.18;5.25;;;12.20;99.90;;;;;;5068665;28;20500;-72
2022/09/26 11:01:58;;;;;;;9.32;5.40;;;12.40;99.90;;;;;;5076968;28;20048;-72
2022/09/26 11:07:24;;;;;;;8.50;5.28;;;12.30;99.90;;;;;;5078209;28;20044;-71
2022/09/26 11:09:58;;;;;;;9.40;5.82;;;12.20;99.90;;;;;;5039452;28;20041;-71
2022/09/26 11:12:34;;;;;;;9.23;5.45;;;12.20;99.90;;;;;;5059664;28;20076;-70
2022/09/26 11:15:06;;;;;;;11.05;5.10;;;12.30;99.90;;;;;;5072687;28;20558;-71
2022/09/26 11:17:50;;;;;;;8.02;5.55;;;12.30;99.90;;;;;;5064095;28;20064;-71
2022/09/26 11:20:37;;;;;;;6.50;5.07;;;12.20;99.90;;;;;;5052664;28;20078;-71
2022/09/26 11:23:18;;;;;;;8.43;5.57;;;12.20;99.90;;;;;;5066332;28;20123;-72
2022/09/26 11:25:59;;;;;;;9.07;6.18;;;12.20;99.90;;;;;;5039960;28;20260;-71
2022/09/26 11:28:44;;;;;;;8.07;5.82;;;12.20;99.90;;;;;;5057679;28;20063;-70
2022/09/26 11:31:33;;;;;;;8.68;5.65;;;12.00;99.90;;;;;;5051520;28;20142;-71
2022/09/26 11:34:03;;;;;;;7.93;5.68;;;12.00;99.90;;;;;;5059134;28;20053;-70
2022/09/26 11:36:40;;;;;;;7.47;5.87;;;12.00;99.90;;;;;;5049399;28;20041;-70
2022/09/26 11:39:32;;;;;;;8.48;5.45;;;11.90;99.90;;;;;;5058263;28;20298;-70
2022/09/26 11:42:08;;;;;;;7.57;5.68;;;12.00;99.90;;;;;;5030793;28;20087;-70
2022/09/26 11:44:37;;;;;;;8.63;5.88;;;11.90;99.90;;;;;;5036863;28;20106;-70
2022/09/26 11:47:40;;;;;;;8.10;5.63;;;11.90;99.90;;;;;;5059645;28;20104;-70
2022/09/26 11:50:38;;;;;;;8.75;6.22;;;11.90;99.90;;;;;;5051234;28;20085;-70
2022/09/26 11:53:16;;;;;;;11.25;6.18;;;11.90;99.90;;;;;;5042745;28;20135;-70
2022/09/26 11:56:29;;;;;;;10.45;6.35;;;11.90;99.90;;;;;;5049527;28;20063;-71
2022/09/26 11:59:18;;;;;;;9.40;6.40;;;11.90;99.90;;;;;;5006400;28;20046;-70
2022/09/26 12:01:51;;;;;;;11.07;5.80;;;11.90;99.90;;;;;;4980422;28;20283;-70
2022/09/26 12:04:26;;;;;;;8.45;6.10;;;11.90;99.90;;;;;;4991553;28;20633;-70
2022/09/26 12:07:00;;;;;;;11.80;6.45;;;11.90;99.90;;;;;;4975411;28;20061;-70
2022/09/26 12:09:56;;;;;;;7.47;6.00;;;12.00;99.90;;;;;;5012874;28;20053;-71
2022/09/26 12:12:59;;;;;;;8.10;6.00;;;11.90;99.90;;;;;;5002525;28;20195;-71
2022/09/26 12:15:47;;;;;;;8.00;6.30;;;12.00;99.90;;;;;;5002297;28;20081;-71
2022/09/26 12:18:15;;;;;;;7.47;6.00;;;12.00;99.90;;;;;;5012248;28;20092;-70
2022/09/26 12:21:09;;;;;;;8.60;5.65;;;12.00;99.90;;;;;;4979720;28;20484;-71
2022/09/26 12:23:53;;;;;;;6.20;5.43;;;12.00;99.90;;;;;;4996271;28;20130;-71
2022/09/26 12:26:23;;;;;;;8.35;5.30;;;11.90;99.90;;;;;;4988724;28;20084;-70
2022/09/26 12:29:10;;;;;;;8.45;6.15;;;12.00;99.90;;;;;;4984535;28;20131;-70
2022/09/26 12:32:13;;;;;;;5.93;5.15;;;12.00;99.90;;;;;;4980903;28;20058;-70
2022/09/26 12:34:58;;;;;;;7.78;4.88;;;12.00;99.90;;;;;;4992169;28;20052;-71
2022/09/26 12:37:59;;;;;;;7.60;5.57;;;12.00;99.90;;;;;;4996756;28;20306;-71
2022/09/26 12:40:37;;;;;;;7.85;6.53;;;12.00;99.90;;;;;;4962109;28;20097;-70
2022/09/26 12:43:21;;;;;;;8.80;5.13;;;12.10;99.90;;;;;;4969055;28;20061;-70
2022/09/26 12:46:07;;;;;;;5.95;4.70;;;12.00;99.90;;;;;;4967538;28;20085;-71
2022/09/26 12:49:00;;;;;;;6.05;4.72;;;12.10;99.90;;;;;;4978341;28;20043;-70
2022/09/26 12:51:46;;;;;;;7.07;4.72;;;12.10;99.90;;;;;;4969355;28;20050;-71
2022/09/26 12:54:31;;;;;;;5.18;4.63;;;12.10;99.90;;;;;;4993193;28;20856;-71
2022/09/26 12:57:16;;;;;;;7.85;4.35;;;12.10;99.90;;;;;;4993232;28;20046;-71
2022/09/26 12:59:51;;;;;;;7.28;4.45;;;12.10;99.90;;;;;;4995248;28;20058;-71
2022/09/26 13:02:27;;;;;;;6.32;4.38;;;12.10;99.90;;;;;;4998187;28;20129;-71
2022/09/26 13:05:01;;;;;;;8.45;4.03;;;12.10;99.90;;;;;;4982328;28;20090;-71
2022/09/26 13:07:32;;;;;;;3.83;3.30;;;12.20;99.90;;;;;;4993428;28;20299;-71
2022/09/26 13:10:15;;;;;;;7.22;3.75;;;12.20;99.90;;;;;;4990124;28;20054;-71
2022/09/26 13:12:56;;;;;;;3.42;3.13;;;12.20;99.90;;;;;;4998818;28;20054;-71
2022/09/26 13:15:31;;;;;;;4.90;3.55;;;12.30;99.90;;;;;;5015342;28;20053;-71
2022/09/26 13:18:06;;;;;;;4.32;3.40;;;12.30;99.90;;;;;;5072087;28;20049;-71
2022/09/26 13:20:39;;;;;;;3.78;3.38;;;12.30;99.90;;;;;;5052034;28;20104;-71
2022/09/26 13:23:16;;;;;;;4.10;3.53;;;12.30;99.90;;;;;;5049079;28;20339;-70
2022/09/26 13:25:51;;;;;;;5.10;3.20;;;12.30;99.90;;;;;;5050202;28;20060;-71
2022/09/26 13:28:23;;;;;;;5.22;3.60;;;12.30;99.90;;;;;;5061406;28;20045;-70